Time;durP1;ratioP1;P1;durP2;ratioP2;P2;SDS_P1;SDS_P2;PMS_P1;PMS_P2;Temp;Humidity;BMP_temperature;BMP_pressure;BME280_temperature;BME280_humidity;BME280_pressure;Samples;Min_cycle;Max_cycle;Signal;HPM_P1;HPM_P2
2023/07/18 00:00:45;;;;;;;;;;;;;;;17.72;53.30;98743.75;2619490;28;19925;-85
2023/07/18 00:02:20;;;;;;;;;;;;;;;17.88;52.78;98739.38;2619899;28;19928;-86
2023/07/18 00:03:36;;;;;;;;;;;;;;;17.57;54.44;98740.97;2619791;28;19982;-86
2023/07/18 00:04:52;;;;;;;;;;;;;;;17.33;54.85;98741.34;2619613;28;19972;-86
2023/07/18 00:06:08;;;;;;;;;;;;;;;17.08;55.76;98737.28;2619078;28;20021;-85
2023/07/18 00:07:23;;;;;;;;;;;;;;;17.27;55.78;98743.44;2619796;28;19932;-86
2023/07/18 00:08:40;;;;;;;;;;;;;;;16.94;56.84;98742.38;2619591;28;19931;-85
2023/07/18 00:09:55;;;;;;;;;;;;;;;17.11;56.46;98740.69;2619542;28;20010;-86
2023/07/18 00:11:11;;;;;;;;;;;;;;;16.84;57.27;98735.81;2619735;28;19974;-86
2023/07/18 00:12:26;;;;;;;;;;;;;;;17.02;56.62;98744.66;2619553;28;19935;-85
2023/07/18 00:13:42;;;;;;;;;;;;;;;16.78;57.14;98743.13;2619752;28;19932;-86
2023/07/18 00:14:57;;;;;;;;;;;;;;;16.94;57.27;98751.16;2619299;28;19960;-85
2023/07/18 00:16:13;;;;;;;;;;;;;;;17.03;56.88;98744.56;2619248;28;19935;-85
2023/07/18 00:17:28;;;;;;;;;;;;;;;17.11;56.52;98751.28;2619847;28;19929;-86
2023/07/18 00:18:44;;;;;;;;;;;;;;;17.23;56.08;98756.81;2619340;28;19928;-85
2023/07/18 00:19:59;;;;;;;;;;;;;;;17.11;56.58;98753.94;2619569;28;19928;-86
2023/07/18 00:21:15;;;;;;;;;;;;;;;17.22;55.70;98757.75;2618474;28;19925;-86
2023/07/18 00:22:31;;;;;;;;;;;;;;;17.00;56.84;98757.97;2619170;28;19963;-85
2023/07/18 00:23:47;;;;;;;;;;;;;;;17.12;56.15;98755.63;2618973;28;20371;-85
2023/07/18 00:25:03;;;;;;;;;;;;;;;17.10;56.59;98761.00;2619860;28;19940;-85
2023/07/18 00:26:18;;;;;;;;;;;;;;;16.91;57.11;98763.69;2618244;28;19951;-85
2023/07/18 00:27:33;;;;;;;;;;;;;;;17.04;56.93;98756.88;2618802;28;19974;-85
2023/07/18 00:28:53;;;;;;;;;;;;;;;16.95;57.38;98759.94;2618873;28;19940;-86
2023/07/18 00:30:12;;;;;;;;;;;;;;;17.02;56.87;98768.47;2619269;28;20387;-85
2023/07/18 00:31:27;;;;;;;;;;;;;;;17.16;56.51;98762.47;2618716;28;19924;-85
2023/07/18 00:32:44;;;;;;;;;;;;;;;17.23;56.22;98769.19;2618988;28;19960;-85
2023/07/18 00:34:00;;;;;;;;;;;;;;;17.16;56.55;98773.06;2619077;28;20360;-85
2023/07/18 00:35:16;;;;;;;;;;;;;;;16.97;57.11;98768.66;2619426;28;19971;-85
2023/07/18 00:36:31;;;;;;;;;;;;;;;17.06;56.99;98767.38;2619866;28;20367;-85
2023/07/18 00:37:47;;;;;;;;;;;;;;;17.08;56.71;98768.16;2619335;28;19924;-85
2023/07/18 00:39:03;;;;;;;;;;;;;;;17.01;56.79;98774.69;2619543;28;19924;-85
2023/07/18 00:40:19;;;;;;;;;;;;;;;16.97;57.78;98775.72;2618760;28;19966;-85
2023/07/18 00:41:34;;;;;;;;;;;;;;;16.88;57.77;98774.38;2619508;28;20475;-85
2023/07/18 00:42:50;;;;;;;;;;;;;;;16.70;58.26;98774.34;2619024;28;19939;-85
2023/07/18 00:44:05;;;;;;;;;;;;;;;16.72;58.22;98771.66;2618812;28;20226;-85
2023/07/18 00:45:21;;;;;;;;;;;;;;;16.65;58.92;98779.84;2618738;28;19929;-86
2023/07/18 00:46:36;;;;;;;;;;;;;;;16.59;59.09;98782.81;2619669;28;19928;-87
2023/07/18 00:47:51;;;;;;;;;;;;;;;16.42;59.77;98775.66;2619248;28;19940;-85
2023/07/18 00:49:08;;;;;;;;;;;;;;;16.54;59.78;98798.00;2619073;28;20292;-85
2023/07/18 00:50:23;;;;;;;;;;;;;;;16.48;59.49;98793.88;2619031;28;20403;-85
2023/07/18 00:51:39;;;;;;;;;;;;;;;16.50;59.89;98791.16;2619036;28;19936;-85
2023/07/18 00:52:55;;;;;;;;;;;;;;;16.56;59.62;98787.38;2618972;28;19967;-85
2023/07/18 00:54:10;;;;;;;;;;;;;;;16.41;60.47;98800.38;2619262;28;19959;-85
2023/07/18 00:55:26;;;;;;;;;;;;;;;16.33;60.79;98798.09;2618622;28;19928;-86
2023/07/18 00:56:41;;;;;;;;;;;;;;;16.38;60.76;98805.81;2618671;28;19990;-86
2023/07/18 00:57:58;;;;;;;;;;;;;;;16.36;60.22;98797.94;2618858;28;20335;-85
2023/07/18 00:59:15;;;;;;;;;;;;;;;16.40;59.99;98806.59;2619135;28;19925;-85
2023/07/18 01:00:31;;;;;;;;;;;;;;;16.48;59.69;98801.81;2618884;28;19932;-85
2023/07/18 01:01:46;;;;;;;;;;;;;;;16.51;59.57;98798.16;2619157;28;20273;-85
2023/07/18 01:03:02;;;;;;;;;;;;;;;16.46;59.85;98806.28;2619438;28;19928;-85
2023/07/18 01:04:18;;;;;;;;;;;;;;;16.44;60.66;98794.94;2618198;28;20299;-85
2023/07/18 01:05:33;;;;;;;;;;;;;;;16.45;60.23;98809.88;2618114;28;20273;-85
2023/07/18 01:06:49;;;;;;;;;;;;;;;16.48;60.74;98815.03;2618360;28;19928;-85
2023/07/18 01:08:05;;;;;;;;;;;;;;;16.48;60.27;98814.16;2619366;28;19968;-85
2023/07/18 01:09:20;;;;;;;;;;;;;;;16.37;60.88;98819.94;2618707;28;19928;-85
2023/07/18 01:10:38;;;;;;;;;;;;;;;16.60;60.36;98818.00;2618976;28;19928;-85
2023/07/18 01:11:54;;;;;;;;;;;;;;;16.67;59.66;98817.66;2618159;28;19931;-85
2023/07/18 01:13:09;;;;;;;;;;;;;;;16.67;60.07;98824.75;2618848;28;20378;-84
2023/07/18 01:14:25;;;;;;;;;;;;;;;16.63;59.69;98820.53;2618748;28;20298;-84
2023/07/18 01:15:41;;;;;;;;;;;;;;;16.64;59.51;98822.25;2619591;28;19936;-84
2023/07/18 01:16:56;;;;;;;;;;;;;;;16.78;59.76;98817.16;2619445;28;20331;-84
2023/07/18 01:18:13;;;;;;;;;;;;;;;16.79;59.22;98813.59;2619298;28;19985;-84
2023/07/18 01:19:29;;;;;;;;;;;;;;;16.73;60.53;98821.78;2618861;28;20442;-85
2023/07/18 01:20:45;;;;;;;;;;;;;;;16.81;59.17;98821.44;2619188;28;19935;-84
2023/07/18 01:22:01;;;;;;;;;;;;;;;16.77;59.96;98815.44;2619116;28;19928;-84
2023/07/18 01:23:16;;;;;;;;;;;;;;;16.83;59.59;98814.28;2618896;28;19924;-84
2023/07/18 01:24:32;;;;;;;;;;;;;;;16.74;60.15;98818.22;2619337;28;20288;-84
2023/07/18 01:25:48;;;;;;;;;;;;;;;16.71;60.52;98820.16;2619214;28;19924;-84
2023/07/18 01:27:03;;;;;;;;;;;;;;;16.55;61.15;98815.56;2619469;28;20429;-84
2023/07/18 01:28:19;;;;;;;;;;;;;;;16.41;61.62;98818.88;2619108;28;19978;-84
2023/07/18 01:29:34;;;;;;;;;;;;;;;16.21;62.03;98819.78;2619022;28;20283;-84
2023/07/18 01:30:49;;;;;;;;;;;;;;;16.13;62.84;98825.41;2619333;28;20543;-84
2023/07/18 01:32:05;;;;;;;;;;;;;;;16.09;63.45;98831.75;2619130;28;19964;-85
2023/07/18 01:33:20;;;;;;;;;;;;;;;16.27;63.68;98832.69;2618821;28;20433;-84
2023/07/18 01:34:36;;;;;;;;;;;;;;;16.36;62.79;98834.94;2618716;28;20988;-84
2023/07/18 01:35:51;;;;;;;;;;;;;;;16.24;63.51;98833.72;2618774;28;20375;-84
2023/07/18 01:37:07;;;;;;;;;;;;;;;16.05;63.19;98831.03;2618780;28;19932;-84
2023/07/18 01:38:29;;;;;;;;;;;;;;;16.03;64.35;98834.66;2618754;28;20195;-84
2023/07/18 01:39:44;;;;;;;;;;;;;;;15.48;66.97;98834.31;2618158;28;19928;-84
2023/07/18 01:41:00;;;;;;;;;;;;;;;15.61;66.75;98832.00;2618754;28;19930;-84
2023/07/18 01:42:16;;;;;;;;;;;;;;;15.67;67.52;98836.16;2618991;28;19925;-84
2023/07/18 01:43:31;;;;;;;;;;;;;;;15.57;68.75;98833.06;2618999;28;20388;-84
2023/07/18 01:44:47;;;;;;;;;;;;;;;15.36;69.34;98835.66;2619105;28;19928;-84
2023/07/18 01:46:02;;;;;;;;;;;;;;;15.26;71.53;98834.34;2618886;28;19929;-84
2023/07/18 01:47:18;;;;;;;;;;;;;;;15.30;72.00;98833.28;2619016;28;19939;-84
2023/07/18 01:48:34;;;;;;;;;;;;;;;15.35;72.04;98833.94;2618385;28;19939;-84
2023/07/18 01:49:50;;;;;;;;;;;;;;;15.44;71.92;98834.50;2618210;28;19963;-84
2023/07/18 01:51:05;;;;;;;;;;;;;;;15.35;73.17;98833.94;2619074;28;20375;-84
2023/07/18 01:52:20;;;;;;;;;;;;;;;15.31;74.59;98842.06;2619047;28;20065;-84
2023/07/18 01:53:36;;;;;;;;;;;;;;;15.45;74.01;98833.56;2619439;28;19936;-84
2023/07/18 01:54:52;;;;;;;;;;;;;;;15.62;72.27;98835.50;2619189;28;19932;-86
2023/07/18 01:56:07;;;;;;;;;;;;;;;15.79;70.94;98835.63;2620045;28;20381;-84
2023/07/18 01:57:23;;;;;;;;;;;;;;;16.00;69.52;98835.66;2620938;28;20287;-84
2023/07/18 01:58:38;;;;;;;;;;;;;;;16.07;68.70;98841.53;2620717;28;19966;-84
2023/07/18 01:59:54;;;;;;;;;;;;;;;16.18;67.98;98844.53;2620647;28;19935;-84
2023/07/18 02:01:09;;;;;;;;;;;;;;;16.18;67.10;98838.41;2621070;28;20594;-84
2023/07/18 02:02:25;;;;;;;;;;;;;;;16.13;67.93;98838.63;2620950;28;20375;-84
2023/07/18 02:03:40;;;;;;;;;;;;;;;16.17;67.24;98842.00;2621149;28;19929;-84
2023/07/18 02:04:57;;;;;;;;;;;;;;;15.99;68.51;98839.22;2620602;28;19924;-84
2023/07/18 02:06:12;;;;;;;;;;;;;;;15.90;68.26;98844.91;2620605;28;19943;-84
2023/07/18 02:07:27;;;;;;;;;;;;;;;16.04;67.32;98839.00;2620532;28;19968;-84
2023/07/18 02:08:42;;;;;;;;;;;;;;;16.07;67.10;98844.19;2620999;28;20299;-84
2023/07/18 02:10:01;;;;;;;;;;;;;;;15.98;68.33;98845.41;2619857;28;19962;-84
2023/07/18 02:11:17;;;;;;;;;;;;;;;15.95;68.11;98846.44;2620620;28;19938;-85
2023/07/18 02:12:32;;;;;;;;;;;;;;;15.95;68.32;98854.34;2620810;28;19928;-85
2023/07/18 02:13:47;;;;;;;;;;;;;;;15.93;68.08;98856.22;2620671;28;19924;-84
2023/07/18 02:15:05;;;;;;;;;;;;;;;16.00;67.87;98854.16;2620595;28;20270;-84
2023/07/18 02:16:20;;;;;;;;;;;;;;;15.87;67.78;98855.59;2620176;28;20482;-84
2023/07/18 02:17:36;;;;;;;;;;;;;;;15.75;68.46;98854.31;2619707;28;19928;-84
2023/07/18 02:18:51;;;;;;;;;;;;;;;15.56;69.38;98852.47;2621070;28;20184;-83
2023/07/18 02:20:09;;;;;;;;;;;;;;;15.56;71.30;98855.09;2620973;28;19935;-84
2023/07/18 02:21:24;;;;;;;;;;;;;;;15.35;71.16;98859.47;2619697;28;20334;-84
2023/07/18 02:22:41;;;;;;;;;;;;;;;15.04;74.43;98861.56;2620043;28;19997;-84
2023/07/18 02:23:56;;;;;;;;;;;;;;;14.99;76.39;98858.25;2620344;28;19929;-84
2023/07/18 02:25:12;;;;;;;;;;;;;;;14.85;77.25;98858.78;2620897;28;19967;-85
2023/07/18 02:26:27;;;;;;;;;;;;;;;14.94;78.60;98852.28;2620584;28;20380;-84
2023/07/18 02:27:43;;;;;;;;;;;;;;;15.01;78.65;98855.56;2620570;28;20482;-84
2023/07/18 02:28:58;;;;;;;;;;;;;;;15.05;78.43;98854.53;2620241;28;19925;-84
2023/07/18 02:30:14;;;;;;;;;;;;;;;15.23;76.16;98855.56;2620855;28;19929;-84
2023/07/18 02:31:29;;;;;;;;;;;;;;;15.19;75.86;98854.84;2620467;28;19936;-84
2023/07/18 02:32:45;;;;;;;;;;;;;;;15.11;76.19;98863.06;2620567;28;20315;-84
2023/07/18 02:34:01;;;;;;;;;;;;;;;15.13;75.78;98862.13;2620366;28;19928;-84
2023/07/18 02:35:18;;;;;;;;;;;;;;;15.01;77.94;98868.72;2620509;28;19932;-84
2023/07/18 02:36:33;;;;;;;;;;;;;;;15.07;77.91;98864.06;2620405;28;19929;-84
2023/07/18 02:37:48;;;;;;;;;;;;;;;15.09;77.69;98871.94;2620710;28;19974;-84
2023/07/18 02:39:07;;;;;;;;;;;;;;;15.04;76.65;98869.47;2620463;28;20347;-84
2023/07/18 02:40:23;;;;;;;;;;;;;;;15.05;77.20;98876.47;2620451;28;20074;-87
2023/07/18 02:41:38;;;;;;;;;;;;;;;14.99;78.31;98875.84;2619878;28;19951;-84
2023/07/18 02:42:53;;;;;;;;;;;;;;;14.99;78.92;98871.44;2619820;28;20468;-84
2023/07/18 02:44:10;;;;;;;;;;;;;;;15.00;79.44;98875.81;2619964;28;19931;-86
2023/07/18 02:45:26;;;;;;;;;;;;;;;14.88;80.27;98871.00;2619071;28;20022;-85
2023/07/18 02:46:41;;;;;;;;;;;;;;;15.00;79.84;98873.16;2618912;28;19932;-86
2023/07/18 02:47:56;;;;;;;;;;;;;;;15.07;78.45;98871.97;2619820;28;19925;-85
2023/07/18 02:49:12;;;;;;;;;;;;;;;15.16;77.66;98870.78;2618988;28;19932;-85
2023/07/18 02:50:27;;;;;;;;;;;;;;;15.00;77.83;98872.28;2619044;28;19975;-84
2023/07/18 02:51:43;;;;;;;;;;;;;;;14.90;79.07;98869.16;2619411;28;20339;-85
2023/07/18 02:52:58;;;;;;;;;;;;;;;14.71;82.66;98877.75;2619755;28;19929;-84
2023/07/18 02:54:14;;;;;;;;;;;;;;;14.85;80.66;98876.41;2619606;28;19929;-86
2023/07/18 02:55:29;;;;;;;;;;;;;;;14.77;81.81;98880.19;2620488;28;19928;-86
2023/07/18 02:56:45;;;;;;;;;;;;;;;14.71;83.75;98883.03;2620073;28;20371;-86
2023/07/18 02:58:00;;;;;;;;;;;;;;;14.65;84.34;98884.13;2620022;28;19930;-85
2023/07/18 02:59:20;;;;;;;;;;;;;;;14.70;84.68;98881.31;2619843;28;19924;-86
2023/07/18 03:00:36;;;;;;;;;;;;;;;14.72;83.94;98884.78;2619946;28;19954;-85
2023/07/18 03:01:54;;;;;;;;;;;;;;;14.72;84.29;98876.00;2620724;28;20341;-86
2023/07/18 03:03:09;;;;;;;;;;;;;;;14.73;84.18;98881.22;2620380;28;19928;-86
2023/07/18 03:04:26;;;;;;;;;;;;;;;14.68;84.52;98881.34;2620392;28;19931;-86
2023/07/18 03:05:42;;;;;;;;;;;;;;;14.75;83.38;98876.75;2619923;28;19928;-86
2023/07/18 03:06:57;;;;;;;;;;;;;;;14.81;82.29;98880.94;2620463;28;20479;-86
2023/07/18 03:08:12;;;;;;;;;;;;;;;15.00;81.22;98880.19;2618994;28;19928;-86
2023/07/18 03:09:28;;;;;;;;;;;;;;;14.73;80.69;98880.34;2619567;28;19932;-86
2023/07/18 03:10:43;;;;;;;;;;;;;;;14.57;84.02;98880.06;2619290;28;19933;-86
2023/07/18 03:11:59;;;;;;;;;;;;;;;14.68;83.39;98883.16;2619945;28;20367;-86
2023/07/18 03:13:14;;;;;;;;;;;;;;;14.66;84.13;98879.69;2620230;28;19944;-86
2023/07/18 03:14:30;;;;;;;;;;;;;;;14.91;80.93;98878.78;2620212;28;19935;-86
2023/07/18 03:15:46;;;;;;;;;;;;;;;14.84;80.97;98886.06;2619993;28;19928;-86
2023/07/18 03:17:01;;;;;;;;;;;;;;;14.85;80.45;98881.69;2620397;28;19924;-86
2023/07/18 03:18:17;;;;;;;;;;;;;;;14.82;80.15;98883.50;2619940;28;19924;-86
2023/07/18 03:19:32;;;;;;;;;;;;;;;14.82;79.71;98878.25;2619909;28;20102;-86
2023/07/18 03:20:48;;;;;;;;;;;;;;;14.85;79.34;98882.50;2619889;28;19928;-86
2023/07/18 03:22:04;;;;;;;;;;;;;;;14.86;78.98;98881.59;2620061;28;19943;-86
2023/07/18 03:23:19;;;;;;;;;;;;;;;14.91;78.98;98878.78;2619538;28;19936;-86
2023/07/18 03:24:35;;;;;;;;;;;;;;;15.01;78.09;98876.63;2620065;28;19960;-86
2023/07/18 03:25:50;;;;;;;;;;;;;;;14.75;80.27;98875.91;2620049;28;19928;-88
2023/07/18 03:27:06;;;;;;;;;;;;;;;14.72;80.87;98870.72;2619855;28;20405;-86
2023/07/18 03:28:21;;;;;;;;;;;;;;;14.69;80.76;98872.53;2620254;28;19928;-86
2023/07/18 03:29:37;;;;;;;;;;;;;;;14.70;80.95;98876.03;2619403;28;20598;-86
2023/07/18 03:30:52;;;;;;;;;;;;;;;14.85;79.31;98881.69;2619969;28;19982;-86
2023/07/18 03:32:07;;;;;;;;;;;;;;;14.90;80.61;98874.44;2620180;28;19925;-87
2023/07/18 03:33:23;;;;;;;;;;;;;;;14.81;81.03;98891.47;2619897;28;20332;-86
2023/07/18 03:34:38;;;;;;;;;;;;;;;14.52;86.11;98886.31;2619582;28;19969;-85
2023/07/18 03:35:54;;;;;;;;;;;;;;;14.71;86.23;98882.16;2620248;28;19959;-86
2023/07/18 03:37:09;;;;;;;;;;;;;;;14.62;87.25;98888.63;2619977;28;19964;-86
2023/07/18 03:38:25;;;;;;;;;;;;;;;14.62;86.02;98886.00;2619672;28;19924;-86
2023/07/18 03:39:40;;;;;;;;;;;;;;;14.53;85.71;98893.34;2619544;28;19928;-86
2023/07/18 03:40:57;;;;;;;;;;;;;;;14.46;87.67;98891.84;2620212;28;19928;-86
2023/07/18 03:42:12;;;;;;;;;;;;;;;14.53;86.99;98890.72;2619384;28;19932;-86
2023/07/18 03:43:28;;;;;;;;;;;;;;;14.54;86.96;98887.16;2620236;28;20364;-85
2023/07/18 03:44:44;;;;;;;;;;;;;;;14.55;87.27;98888.00;2619451;28;19928;-86
2023/07/18 03:45:59;;;;;;;;;;;;;;;14.37;88.49;98892.16;2620295;28;19977;-86
2023/07/18 03:47:14;;;;;;;;;;;;;;;14.50;87.22;98887.31;2619983;28;19925;-86
2023/07/18 03:48:30;;;;;;;;;;;;;;;14.56;87.04;98892.34;2619606;28;19925;-85
2023/07/18 03:49:45;;;;;;;;;;;;;;;14.59;85.59;98897.50;2619649;28;20028;-86
2023/07/18 03:51:04;;;;;;;;;;;;;;;14.42;86.66;98890.25;2618618;28;19956;-85
2023/07/18 03:52:20;;;;;;;;;;;;;;;14.47;86.60;98892.72;2618627;28;19942;-85
2023/07/18 03:53:35;;;;;;;;;;;;;;;14.33;87.74;98887.94;2619515;28;19943;-85
2023/07/18 03:54:51;;;;;;;;;;;;;;;14.45;87.27;98890.13;2619711;28;19929;-85
2023/07/18 03:56:06;;;;;;;;;;;;;;;14.48;85.98;98897.91;2619975;28;20157;-85
2023/07/18 03:57:21;;;;;;;;;;;;;;;14.63;84.16;98893.84;2619349;28;19993;-86
2023/07/18 03:58:37;;;;;;;;;;;;;;;14.85;81.63;98887.78;2618821;28;19929;-86
2023/07/18 03:59:53;;;;;;;;;;;;;;;14.74;82.20;98890.00;2619592;28;19933;-87
2023/07/18 04:01:09;;;;;;;;;;;;;;;14.90;82.39;98887.63;2619722;28;19928;-87
2023/07/18 04:02:25;;;;;;;;;;;;;;;14.86;81.27;98886.88;2619802;28;19932;-86
2023/07/18 04:03:41;;;;;;;;;;;;;;;14.93;80.81;98884.84;2619051;28;20019;-87
2023/07/18 04:04:56;;;;;;;;;;;;;;;14.78;82.08;98886.31;2619615;28;19974;-86
2023/07/18 04:06:11;;;;;;;;;;;;;;;14.58;82.43;98890.50;2619568;28;19928;-85
2023/07/18 04:07:27;;;;;;;;;;;;;;;14.60;82.35;98890.47;2619093;28;20930;-86
2023/07/18 04:08:43;;;;;;;;;;;;;;;14.86;81.42;98893.94;2619062;28;19963;-86
2023/07/18 04:09:58;;;;;;;;;;;;;;;14.71;83.52;98890.94;2619267;28;19951;-86
2023/07/18 04:11:14;;;;;;;;;;;;;;;14.68;84.06;98891.91;2619890;28;19974;-85
2023/07/18 04:12:30;;;;;;;;;;;;;;;14.62;84.48;98896.53;2619695;28;20300;-85
2023/07/18 04:13:45;;;;;;;;;;;;;;;14.34;86.01;98890.53;2619713;28;19924;-85
2023/07/18 04:15:01;;;;;;;;;;;;;;;14.45;85.04;98898.03;2619674;28;19924;-86
2023/07/18 04:16:16;;;;;;;;;;;;;;;14.50;85.81;98890.81;2619710;28;20208;-86
2023/07/18 04:17:32;;;;;;;;;;;;;;;14.51;85.53;98891.69;2619127;28;19935;-88
2023/07/18 04:18:47;;;;;;;;;;;;;;;14.66;84.56;98891.09;2618499;28;19928;-87
2023/07/18 04:20:04;;;;;;;;;;;;;;;14.63;86.10;98893.84;2618825;28;20428;-85
2023/07/18 04:21:19;;;;;;;;;;;;;;;14.71;85.57;98898.84;2618706;28;19977;-85
2023/07/18 04:22:35;;;;;;;;;;;;;;;14.81;84.50;98897.63;2618952;28;19932;-85
2023/07/18 04:23:50;;;;;;;;;;;;;;;14.90;82.59;98898.16;2619022;28;19956;-84
2023/07/18 04:25:06;;;;;;;;;;;;;;;14.83;83.09;98902.81;2619212;28;19956;-84
2023/07/18 04:26:21;;;;;;;;;;;;;;;14.83;84.64;98901.03;2618883;28;20605;-84
2023/07/18 04:27:37;;;;;;;;;;;;;;;14.66;86.73;98893.75;2619569;28;20039;-84
2023/07/18 04:28:52;;;;;;;;;;;;;;;14.84;84.35;98896.63;2619280;28;19932;-84
2023/07/18 04:30:08;;;;;;;;;;;;;;;14.88;84.30;98900.88;2619410;28;19935;-84
2023/07/18 04:31:23;;;;;;;;;;;;;;;15.07;81.89;98892.25;2619670;28;19929;-83
2023/07/18 04:32:41;;;;;;;;;;;;;;;15.17;81.02;98898.88;2619176;28;19939;-83
2023/07/18 04:33:57;;;;;;;;;;;;;;;15.10;83.19;98898.25;2619835;28;20391;-83
2023/07/18 04:35:12;;;;;;;;;;;;;;;15.00;82.89;98896.91;2619780;28;20001;-83
2023/07/18 04:36:28;;;;;;;;;;;;;;;15.00;83.27;98902.16;2619293;28;20302;-83
2023/07/18 04:37:43;;;;;;;;;;;;;;;15.02;83.65;98907.41;2619563;28;20374;-83
2023/07/18 04:38:58;;;;;;;;;;;;;;;14.98;84.49;98906.66;2619901;28;19968;-83
2023/07/18 04:40:14;;;;;;;;;;;;;;;14.99;82.09;98907.50;2619570;28;20429;-82
2023/07/18 04:41:29;;;;;;;;;;;;;;;14.92;82.88;98904.22;2618583;28;19943;-82
2023/07/18 04:42:45;;;;;;;;;;;;;;;15.03;82.30;98893.28;2618149;28;19931;-82
2023/07/18 04:44:00;;;;;;;;;;;;;;;15.06;81.90;98895.81;2618620;28;20239;-82
2023/07/18 04:45:16;;;;;;;;;;;;;;;15.17;81.43;98904.16;2618552;28;19951;-82
2023/07/18 04:46:32;;;;;;;;;;;;;;;15.21;80.87;98896.94;2619529;28;20368;-82
2023/07/18 04:47:47;;;;;;;;;;;;;;;15.27;81.59;98895.84;2619090;28;19929;-81
2023/07/18 04:49:02;;;;;;;;;;;;;;;15.30;80.97;98903.66;2619573;28;19935;-81
2023/07/18 04:50:18;;;;;;;;;;;;;;;15.39;80.76;98898.00;2619419;28;19924;-82
2023/07/18 04:51:33;;;;;;;;;;;;;;;15.46;81.43;98898.59;2619440;28;19932;-82
2023/07/18 04:52:49;;;;;;;;;;;;;;;15.50;79.04;98905.47;2619290;28;19925;-81
2023/07/18 04:54:04;;;;;;;;;;;;;;;15.58;78.54;98905.19;2619502;28;19925;-81
2023/07/18 04:55:20;;;;;;;;;;;;;;;15.52;77.69;98901.84;2619021;28;20387;-82
2023/07/18 04:56:35;;;;;;;;;;;;;;;15.49;78.87;98898.47;2619305;28;19928;-81
2023/07/18 04:57:51;;;;;;;;;;;;;;;15.49;79.59;98902.00;2618802;28;19943;-81
2023/07/18 04:59:06;;;;;;;;;;;;;;;15.52;79.44;98898.38;2619546;28;20406;-81
2023/07/18 05:00:21;;;;;;;;;;;;;;;15.46;79.67;98894.22;2618840;28;19951;-81
2023/07/18 05:01:39;;;;;;;;;;;;;;;15.49;79.69;98888.78;2619678;28;19929;-81
2023/07/18 05:02:55;;;;;;;;;;;;;;;15.49;79.81;98895.84;2618840;28;19928;-81
2023/07/18 05:04:10;;;;;;;;;;;;;;;15.45;79.95;98891.63;2618740;28;19928;-81
2023/07/18 05:05:26;;;;;;;;;;;;;;;15.57;79.69;98892.88;2619307;28;20341;-81
2023/07/18 05:06:41;;;;;;;;;;;;;;;15.50;79.31;98889.63;2618933;28;19975;-81
2023/07/18 05:08:00;;;;;;;;;;;;;;;15.63;78.34;98890.84;2619490;28;20088;-81
2023/07/18 05:09:17;;;;;;;;;;;;;;;15.68;77.97;98888.91;2618892;28;19967;-81
2023/07/18 05:10:32;;;;;;;;;;;;;;;15.76;77.67;98896.50;2619077;28;20403;-81
2023/07/18 05:11:47;;;;;;;;;;;;;;;15.77;77.45;98892.06;2619223;28;19928;-81
2023/07/18 05:13:03;;;;;;;;;;;;;;;15.93;76.61;98894.94;2619676;28;19932;-81
2023/07/18 05:14:18;;;;;;;;;;;;;;;16.02;75.59;98894.56;2619009;28;20368;-81
2023/07/18 05:15:34;;;;;;;;;;;;;;;16.14;74.79;98894.97;2619257;28;19924;-81
2023/07/18 05:16:49;;;;;;;;;;;;;;;16.10;74.63;98895.06;2619047;28;20098;-81
2023/07/18 05:18:05;;;;;;;;;;;;;;;16.19;74.67;98888.53;2618806;28;19962;-81
2023/07/18 05:19:20;;;;;;;;;;;;;;;16.32;73.63;98890.63;2619222;28;20394;-81
2023/07/18 05:20:36;;;;;;;;;;;;;;;16.44;72.51;98886.59;2619183;28;19928;-81
2023/07/18 05:21:51;;;;;;;;;;;;;;;16.58;71.64;98888.59;2618926;28;20270;-82
2023/07/18 05:23:07;;;;;;;;;;;;;;;16.45;71.06;98893.59;2618739;28;20245;-82
2023/07/18 05:24:22;;;;;;;;;;;;;;;16.46;71.53;98890.03;2618197;28;20487;-82
2023/07/18 05:25:38;;;;;;;;;;;;;;;16.38;72.38;98896.50;2618830;28;20562;-82
2023/07/18 05:26:53;;;;;;;;;;;;;;;16.53;71.00;98891.44;2618726;28;19928;-81
2023/07/18 05:28:09;;;;;;;;;;;;;;;16.49;71.83;98889.88;2619085;28;19928;-82
2023/07/18 05:29:25;;;;;;;;;;;;;;;16.57;71.42;98892.16;2618674;28;19929;-81
2023/07/18 05:30:40;;;;;;;;;;;;;;;16.70;70.86;98898.63;2619089;28;19928;-82
2023/07/18 05:31:55;;;;;;;;;;;;;;;16.79;70.70;98902.63;2621554;28;20422;-81
2023/07/18 05:33:12;;;;;;;;;;;;;;;16.93;69.96;98894.06;2621093;28;19925;-81
2023/07/18 05:34:27;;;;;;;;;;;;;;;16.99;69.00;98896.44;2620116;28;19932;-82
2023/07/18 05:35:43;;;;;;;;;;;;;;;16.95;68.19;98892.19;2620061;28;20139;-82
2023/07/18 05:37:00;;;;;;;;;;;;;;;17.12;66.98;98890.56;2620573;28;20300;-81
2023/07/18 05:38:16;;;;;;;;;;;;;;;17.23;66.58;98898.84;2620273;28;19924;-82
2023/07/18 05:39:31;;;;;;;;;;;;;;;17.20;65.42;98896.34;2616924;28;19932;-82
2023/07/18 05:40:47;;;;;;;;;;;;;;;17.21;66.53;98890.97;2618822;28;19985;-81
2023/07/18 05:42:02;;;;;;;;;;;;;;;17.11;66.83;98889.69;2620898;28;19991;-81
2023/07/18 05:43:20;;;;;;;;;;;;;;;17.32;66.12;98885.19;2619451;28;20049;-82
2023/07/18 05:44:36;;;;;;;;;;;;;;;17.45;65.57;98889.84;2620694;28;19967;-82
2023/07/18 05:45:52;;;;;;;;;;;;;;;17.48;64.73;98884.41;2619858;28;19932;-82
2023/07/18 05:47:08;;;;;;;;;;;;;;;17.65;63.96;98880.91;2620315;28;19982;-81
2023/07/18 05:48:23;;;;;;;;;;;;;;;17.57;64.45;98877.81;2620159;28;20057;-81
2023/07/18 05:49:38;;;;;;;;;;;;;;;17.74;63.15;98884.88;2616404;28;19987;-81
2023/07/18 05:50:55;;;;;;;;;;;;;;;17.69;63.14;98881.63;2619350;28;19928;-82
2023/07/18 05:52:11;;;;;;;;;;;;;;;17.55;63.32;98874.38;2620570;28;19936;-81
2023/07/18 05:53:26;;;;;;;;;;;;;;;17.86;62.83;98878.13;2621233;28;19928;-81
2023/07/18 05:54:42;;;;;;;;;;;;;;;17.89;61.97;98878.84;2620369;28;19928;-82
2023/07/18 05:55:57;;;;;;;;;;;;;;;18.05;61.62;98880.72;2620648;28;19928;-82
2023/07/18 05:57:13;;;;;;;;;;;;;;;18.07;61.22;98885.00;2619919;28;19982;-82
2023/07/18 05:58:28;;;;;;;;;;;;;;;18.07;61.58;98882.34;2620117;28;20449;-81
2023/07/18 05:59:44;;;;;;;;;;;;;;;18.26;60.22;98884.03;2620665;28;19928;-81
2023/07/18 06:00:59;;;;;;;;;;;;;;;18.32;59.86;98885.53;2619100;28;20380;-81
2023/07/18 06:02:15;;;;;;;;;;;;;;;18.37;59.52;98883.47;2619780;28;19929;-81
2023/07/18 06:03:30;;;;;;;;;;;;;;;18.57;58.91;98890.34;2619526;28;19928;-82
2023/07/18 06:04:47;;;;;;;;;;;;;;;18.64;58.74;98888.22;2620332;28;19933;-86
2023/07/18 06:06:02;;;;;;;;;;;;;;;18.56;58.98;98883.34;2620748;28;19925;-83
2023/07/18 06:07:17;;;;;;;;;;;;;;;18.62;59.20;98879.50;2619940;28;19928;-82
2023/07/18 06:08:33;;;;;;;;;;;;;;;18.61;58.70;98883.94;2617006;28;19986;-82
2023/07/18 06:09:52;;;;;;;;;;;;;;;18.82;57.98;98885.50;2615928;28;20406;-82
2023/07/18 06:11:07;;;;;;;;;;;;;;;18.98;57.44;98878.41;2619356;28;20415;-83
2023/07/18 06:12:22;;;;;;;;;;;;;;;18.88;57.42;98879.88;2619494;28;19932;-82
2023/07/18 06:13:39;;;;;;;;;;;;;;;18.93;57.49;98885.78;2620300;28;20372;-83
2023/07/18 06:14:55;;;;;;;;;;;;;;;19.12;56.06;98876.81;2619287;28;19935;-82
2023/07/18 06:16:10;;;;;;;;;;;;;;;19.08;56.38;98886.75;2621199;28;19928;-82
2023/07/18 06:17:26;;;;;;;;;;;;;;;19.18;55.85;98884.44;2619766;28;19924;-81
2023/07/18 06:18:41;;;;;;;;;;;;;;;19.28;55.70;98884.78;2620074;28;20911;-84
2023/07/18 06:19:57;;;;;;;;;;;;;;;19.12;56.53;98876.81;2620607;28;19943;-86
2023/07/18 06:21:12;;;;;;;;;;;;;;;19.11;57.04;98878.63;2620431;28;19929;-81
2023/07/18 06:22:27;;;;;;;;;;;;;;;19.24;56.42;98878.78;2618847;28;19938;-84
2023/07/18 06:23:43;;;;;;;;;;;;;;;19.32;55.31;98879.19;2616837;28;19932;-83
2023/07/18 06:24:58;;;;;;;;;;;;;;;19.50;54.95;98878.25;2620541;28;19935;-83
2023/07/18 06:26:13;;;;;;;;;;;;;;;19.41;55.36;98875.16;2620708;28;19928;-83
2023/07/18 06:27:29;;;;;;;;;;;;;;;19.75;54.06;98881.16;2620313;28;19935;-85
2023/07/18 06:28:44;;;;;;;;;;;;;;;19.73;54.06;98879.53;2620358;28;20340;-83
2023/07/18 06:29:59;;;;;;;;;;;;;;;19.81;53.80;98876.44;2620740;28;20399;-84
2023/07/18 06:31:15;;;;;;;;;;;;;;;19.74;54.27;98875.94;2620603;28;19929;-83
2023/07/18 06:32:30;;;;;;;;;;;;;;;19.98;53.90;98876.31;2620262;28;20239;-84
2023/07/18 06:33:46;;;;;;;;;;;;;;;19.98;52.82;98878.13;2620253;28;19966;-83
2023/07/18 06:35:03;;;;;;;;;;;;;;;19.81;54.20;98874.63;2620789;28;19928;-84